N124MC KCOS-KAFF
Flight info
| Callsign | N124MC |
|---|---|
| Flight time | 0h 15m |
| Altitude | 14500 |
| Route | VFR |
| Aircraft | M20P/L-VGD/C |
Departure
| Time | 2026-05-07 15:40 |
|---|---|
| Airport | City of Colorado Springs Municipal Airport (KCOS) |
Arrival
| Time | 2026-05-07 15:56 |
|---|---|
| Airport | USAF Academy Airfield (KAFF) |
| Time | Latitude | Longitude | Altitude | Speed | Heading |
|---|---|---|---|---|---|
| 2026-05-07 15:34 | 38.81483 | -104.70147 | 6188 ft | 0 kts | 225° |
| 2026-05-07 15:37 | 38.81452 | -104.70149 | 6188 ft | 12 kts | 167° |
| 2026-05-07 15:37 | 38.81349 | -104.70040 | 6188 ft | 27 kts | 133° |
| 2026-05-07 15:38 | 38.81197 | -104.69850 | 6188 ft | 31 kts | 136° |
| 2026-05-07 15:38 | 38.81047 | -104.69667 | 6188 ft | 28 kts | 135° |
| 2026-05-07 15:38 | 38.80915 | -104.69494 | 6188 ft | 26 kts | 135° |
| 2026-05-07 15:38 | 38.80814 | -104.69396 | 6188 ft | 15 kts | 194° |
| 2026-05-07 15:39 | 38.80738 | -104.69467 | 6190 ft | 12 kts | 225° |
| 2026-05-07 15:39 | 38.80769 | -104.69566 | 6190 ft | 19 kts | 314° |
| 2026-05-07 15:39 | 38.80953 | -104.69803 | 6190 ft | 56 kts | 315° |
| 2026-05-07 15:39 | 38.81291 | -104.70245 | 6229 ft | 79 kts | 313° |
| 2026-05-07 15:40 | 38.81675 | -104.70778 | 6395 ft | 87 kts | 312° |
| 2026-05-07 15:40 | 38.82112 | -104.71374 | 6611 ft | 93 kts | 314° |
| 2026-05-07 15:40 | 38.82371 | -104.72119 | 6887 ft | 100 kts | 270° |
| 2026-05-07 15:40 | 38.82383 | -104.73036 | 7133 ft | 104 kts | 277° |
| 2026-05-07 15:41 | 38.82442 | -104.73979 | 7380 ft | 107 kts | 277° |
| 2026-05-07 15:41 | 38.82496 | -104.74946 | 7633 ft | 111 kts | 277° |
| 2026-05-07 15:41 | 38.82502 | -104.75933 | 7884 ft | 112 kts | 273° |
| 2026-05-07 15:41 | 38.82508 | -104.76937 | 8135 ft | 114 kts | 272° |
| 2026-05-07 15:42 | 38.82523 | -104.77938 | 8372 ft | 114 kts | 273° |
| 2026-05-07 15:42 | 38.82548 | -104.78941 | 8609 ft | 113 kts | 273° |
| 2026-05-07 15:42 | 38.82585 | -104.79945 | 8854 ft | 112 kts | 274° |
| 2026-05-07 15:42 | 38.82621 | -104.80939 | 9108 ft | 111 kts | 273° |
| 2026-05-07 15:43 | 38.82657 | -104.81929 | 9361 ft | 111 kts | 274° |
| 2026-05-07 15:43 | 38.82691 | -104.82913 | 9606 ft | 109 kts | 273° |
| 2026-05-07 15:43 | 38.82720 | -104.83872 | 9857 ft | 107 kts | 273° |
| 2026-05-07 15:43 | 38.82747 | -104.84812 | 10099 ft | 104 kts | 273° |
| 2026-05-07 15:44 | 38.82773 | -104.85734 | 10325 ft | 103 kts | 273° |
| 2026-05-07 15:44 | 38.82790 | -104.86647 | 10551 ft | 101 kts | 273° |
| 2026-05-07 15:44 | 38.82802 | -104.87537 | 10778 ft | 98 kts | 274° |
| 2026-05-07 15:44 | 38.82808 | -104.88413 | 10963 ft | 99 kts | 273° |
| 2026-05-07 15:45 | 38.82809 | -104.89341 | 11127 ft | 109 kts | 274° |
| 2026-05-07 15:45 | 38.82813 | -104.90306 | 11288 ft | 108 kts | 274° |
| 2026-05-07 15:45 | 38.82807 | -104.91264 | 11461 ft | 108 kts | 274° |
| 2026-05-07 15:45 | 38.82804 | -104.92238 | 11647 ft | 109 kts | 274° |
| 2026-05-07 15:46 | 38.82787 | -104.94273 | 12058 ft | 119 kts | 274° |
| 2026-05-07 15:46 | 38.82777 | -104.95335 | 12265 ft | 117 kts | 274° |
| 2026-05-07 15:46 | 38.82760 | -104.96401 | 12455 ft | 120 kts | 274° |
| 2026-05-07 15:47 | 38.82741 | -104.97462 | 12681 ft | 118 kts | 274° |
| 2026-05-07 15:47 | 38.82723 | -104.98467 | 12923 ft | 109 kts | 273° |
| 2026-05-07 15:47 | 38.82695 | -104.99408 | 13160 ft | 102 kts | 273° |
| 2026-05-07 15:47 | 38.82651 | -105.00269 | 13354 ft | 93 kts | 271° |
| 2026-05-07 15:48 | 38.82619 | -105.01103 | 13420 ft | 90 kts | 272° |
| 2026-05-07 15:48 | 38.82579 | -105.01897 | 13533 ft | 90 kts | 273° |
| 2026-05-07 15:48 | 38.82543 | -105.02754 | 13597 ft | 101 kts | 273° |
| 2026-05-07 15:48 | 38.82503 | -105.03669 | 13684 ft | 101 kts | 274° |
| 2026-05-07 15:49 | 38.82649 | -105.04507 | 13752 ft | 94 kts | 304° |
| 2026-05-07 15:49 | 38.82992 | -105.05185 | 13769 ft | 92 kts | 304° |
| 2026-05-07 15:49 | 38.83479 | -105.05856 | 13673 ft | 116 kts | 330° |
| 2026-05-07 15:49 | 38.84291 | -105.06017 | 13555 ft | 126 kts | 7° |
| 2026-05-07 15:50 | 38.85160 | -105.05674 | 13493 ft | 138 kts | 27° |
| 2026-05-07 15:50 | 38.85728 | -105.04564 | 13483 ft | 161 kts | 65° |
| 2026-05-07 15:50 | 38.86105 | -105.03171 | 13335 ft | 167 kts | 65° |
| 2026-05-07 15:50 | 38.86503 | -105.01751 | 12968 ft | 172 kts | 66° |
| 2026-05-07 15:51 | 38.86918 | -105.00294 | 12598 ft | 175 kts | 66° |
| 2026-05-07 15:51 | 38.87244 | -104.98760 | 12241 ft | 181 kts | 73° |
| 2026-05-07 15:51 | 38.87541 | -104.97197 | 11876 ft | 181 kts | 73° |
| 2026-05-07 15:51 | 38.87848 | -104.95626 | 11516 ft | 182 kts | 72° |
| 2026-05-07 15:52 | 38.88166 | -104.94027 | 11056 ft | 189 kts | 73° |
| 2026-05-07 15:52 | 38.88513 | -104.92358 | 10598 ft | 196 kts | 72° |
| 2026-05-07 15:52 | 38.88878 | -104.90685 | 10139 ft | 197 kts | 73° |
| 2026-05-07 15:52 | 38.89247 | -104.88994 | 9675 ft | 199 kts | 72° |
| 2026-05-07 15:53 | 38.89630 | -104.87273 | 9154 ft | 200 kts | 72° |
| 2026-05-07 15:53 | 38.89997 | -104.85653 | 8681 ft | 165 kts | 72° |
| 2026-05-07 15:53 | 38.90273 | -104.84365 | 8162 ft | 135 kts | 67° |
| 2026-05-07 15:53 | 38.90835 | -104.83566 | 7603 ft | 120 kts | 21° |
| 2026-05-07 15:54 | 38.91540 | -104.83223 | 7559 ft | 100 kts | 17° |
| 2026-05-07 15:54 | 38.92172 | -104.82817 | 7565 ft | 101 kts | 24° |
| 2026-05-07 15:54 | 38.92828 | -104.82415 | 7445 ft | 108 kts | 18° |
| 2026-05-07 15:54 | 38.93560 | -104.82101 | 7256 ft | 113 kts | 12° |
| 2026-05-07 15:55 | 38.94317 | -104.81885 | 7053 ft | 108 kts | 8° |
| 2026-05-07 15:55 | 38.95025 | -104.81720 | 6918 ft | 99 kts | 9° |
| 2026-05-07 15:55 | 38.95681 | -104.81584 | 6793 ft | 91 kts | 4° |
| 2026-05-07 15:55 | 38.96273 | -104.81563 | 6677 ft | 82 kts | 357° |
| 2026-05-07 15:56 | 38.96803 | -104.81651 | 6569 ft | 72 kts | 349° |
| 2026-05-07 15:56 | 38.97198 | -104.81743 | 6544 ft | 25 kts | 349° |
| 2026-05-07 15:56 | 38.97220 | -104.81683 | 6545 ft | 17 kts | 135° |
| 2026-05-07 15:56 | 38.97131 | -104.81580 | 6547 ft | 17 kts | 129° |
| 2026-05-07 15:57 | 38.97051 | -104.81480 | 6550 ft | 16 kts | 130° |
| 2026-05-07 15:57 | 38.97021 | -104.81440 | 6550 ft | 0 kts | 180° |